sensor_id;sensor_type;location;lat;lon;timestamp;P1;durP1;ratioP1;P2;durP2;ratioP2
489;SDS011;231;48.120;11.576;2023-06-26T03:31:48;10.33;;;9.83;;
489;SDS011;231;48.120;11.576;2023-06-26T03:34:46;11.23;;;10.63;;
489;SDS011;231;48.120;11.576;2023-06-26T03:37:52;10.30;;;9.80;;
489;SDS011;231;48.120;11.576;2023-06-26T03:41:11;10.10;;;9.60;;
489;SDS011;231;48.120;11.576;2023-06-26T03:55:04;9.97;;;9.47;;
489;SDS011;231;48.120;11.576;2023-06-26T05:25:10;10.43;;;9.90;;
489;SDS011;231;48.120;11.576;2023-06-26T05:28:43;9.57;;;9.03;;
489;SDS011;231;48.120;11.576;2023-06-26T05:42:14;11.10;;;10.50;;
489;SDS011;231;48.120;11.576;2023-06-26T05:48:19;9.90;;;9.40;;
489;SDS011;231;48.120;11.576;2023-06-26T05:50:55;8.70;;;8.20;;
489;SDS011;231;48.120;11.576;2023-06-26T05:53:28;9.13;;;8.63;;
489;SDS011;231;48.120;11.576;2023-06-26T05:56:01;9.27;;;8.70;;
489;SDS011;231;48.120;11.576;2023-06-26T05:58:34;8.33;;;7.90;;
489;SDS011;231;48.120;11.576;2023-06-26T06:01:11;9.03;;;8.53;;
489;SDS011;231;48.120;11.576;2023-06-26T06:03:49;9.87;;;9.37;;
489;SDS011;231;48.120;11.576;2023-06-26T06:06:40;9.00;;;8.50;;
489;SDS011;231;48.120;11.576;2023-06-26T06:09:07;9.50;;;9.00;;
489;SDS011;231;48.120;11.576;2023-06-26T06:11:40;9.40;;;8.90;;
489;SDS011;231;48.120;11.576;2023-06-26T06:14:07;8.67;;;8.17;;
489;SDS011;231;48.120;11.576;2023-06-26T06:16:42;8.70;;;8.20;;
489;SDS011;231;48.120;11.576;2023-06-26T06:19:21;12.90;;;8.97;;
489;SDS011;231;48.120;11.576;2023-06-26T06:21:51;9.07;;;8.57;;
489;SDS011;231;48.120;11.576;2023-06-26T06:24:19;8.90;;;8.40;;
489;SDS011;231;48.120;11.576;2023-06-26T06:26:47;8.60;;;8.10;;
489;SDS011;231;48.120;11.576;2023-06-26T06:29:14;7.90;;;7.50;;
489;SDS011;231;48.120;11.576;2023-06-26T06:31:43;7.90;;;7.50;;
489;SDS011;231;48.120;11.576;2023-06-26T06:34:10;8.33;;;7.90;;
489;SDS011;231;48.120;11.576;2023-06-26T06:36:37;10.43;;;9.90;;
489;SDS011;231;48.120;11.576;2023-06-26T06:39:04;8.87;;;8.37;;
489;SDS011;231;48.120;11.576;2023-06-26T06:41:31;8.70;;;8.20;;
489;SDS011;231;48.120;11.576;2023-06-26T06:43:59;9.37;;;8.87;;
489;SDS011;231;48.120;11.576;2023-06-26T06:46:26;8.60;;;8.10;;
489;SDS011;231;48.120;11.576;2023-06-26T06:48:53;10.23;;;9.27;;
489;SDS011;231;48.120;11.576;2023-06-26T06:51:20;9.37;;;8.87;;
489;SDS011;231;48.120;11.576;2023-06-26T06:53:46;6.93;;;6.53;;
489;SDS011;231;48.120;11.576;2023-06-26T06:56:13;7.50;;;7.10;;
489;SDS011;231;48.120;11.576;2023-06-26T06:58:40;8.50;;;7.50;;
489;SDS011;231;48.120;11.576;2023-06-26T07:01:10;8.80;;;7.60;;
489;SDS011;231;48.120;11.576;2023-06-26T07:03:36;7.23;;;6.83;;
489;SDS011;231;48.120;11.576;2023-06-26T07:06:03;8.53;;;7.40;;
489;SDS011;231;48.120;11.576;2023-06-26T07:08:30;8.23;;;7.83;;
489;SDS011;231;48.120;11.576;2023-06-26T07:10:57;7.70;;;7.30;;
489;SDS011;231;48.120;11.576;2023-06-26T07:13:24;7.93;;;7.53;;
489;SDS011;231;48.120;11.576;2023-06-26T07:15:51;7.00;;;6.60;;
489;SDS011;231;48.120;11.576;2023-06-26T07:18:19;7.07;;;6.27;;
489;SDS011;231;48.120;11.576;2023-06-26T07:20:46;7.90;;;7.50;;
489;SDS011;231;48.120;11.576;2023-06-26T07:23:12;7.43;;;7.03;;
489;SDS011;231;48.120;11.576;2023-06-26T07:25:39;7.00;;;6.60;;
489;SDS011;231;48.120;11.576;2023-06-26T07:28:09;6.90;;;6.50;;
489;SDS011;231;48.120;11.576;2023-06-26T07:30:37;8.13;;;7.73;;
489;SDS011;231;48.120;11.576;2023-06-26T07:33:03;6.90;;;6.50;;
489;SDS011;231;48.120;11.576;2023-06-26T07:35:32;7.93;;;7.53;;
489;SDS011;231;48.120;11.576;2023-06-26T07:37:59;7.47;;;7.07;;
489;SDS011;231;48.120;11.576;2023-06-26T07:40:26;8.07;;;7.67;;
489;SDS011;231;48.120;11.576;2023-06-26T07:42:53;6.80;;;6.40;;
489;SDS011;231;48.120;11.576;2023-06-26T07:45:20;7.03;;;6.63;;
489;SDS011;231;48.120;11.576;2023-06-26T07:47:47;7.40;;;7.00;;
489;SDS011;231;48.120;11.576;2023-06-26T07:50:13;8.03;;;7.63;;
489;SDS011;231;48.120;11.576;2023-06-26T07:52:45;7.30;;;6.90;;
489;SDS011;231;48.120;11.576;2023-06-26T07:55:12;7.00;;;6.60;;
489;SDS011;231;48.120;11.576;2023-06-26T07:57:39;7.90;;;7.50;;
489;SDS011;231;48.120;11.576;2023-06-26T08:00:06;7.43;;;7.03;;
489;SDS011;231;48.120;11.576;2023-06-26T08:02:34;7.83;;;7.43;;
489;SDS011;231;48.120;11.576;2023-06-26T08:05:01;7.70;;;7.30;;
489;SDS011;231;48.120;11.576;2023-06-26T08:07:28;8.17;;;7.77;;
489;SDS011;231;48.120;11.576;2023-06-26T08:09:56;6.90;;;6.50;;
489;SDS011;231;48.120;11.576;2023-06-26T08:12:23;8.03;;;7.63;;
489;SDS011;231;48.120;11.576;2023-06-26T08:14:49;7.50;;;7.10;;
489;SDS011;231;48.120;11.576;2023-06-26T08:17:16;7.90;;;7.50;;
489;SDS011;231;48.120;11.576;2023-06-26T08:19:43;6.93;;;6.53;;
489;SDS011;231;48.120;11.576;2023-06-26T08:22:10;7.53;;;7.13;;
489;SDS011;231;48.120;11.576;2023-06-26T08:24:36;7.40;;;7.00;;
489;SDS011;231;48.120;11.576;2023-06-26T08:27:05;7.73;;;7.33;;
489;SDS011;231;48.120;11.576;2023-06-26T08:29:32;15.57;;;8.07;;
489;SDS011;231;48.120;11.576;2023-06-26T08:31:59;7.93;;;7.53;;
489;SDS011;231;48.120;11.576;2023-06-26T08:34:27;6.90;;;6.50;;
489;SDS011;231;48.120;11.576;2023-06-26T08:36:54;7.80;;;7.40;;
489;SDS011;231;48.120;11.576;2023-06-26T08:39:20;7.50;;;7.10;;
489;SDS011;231;48.120;11.576;2023-06-26T08:41:47;7.23;;;6.83;;
489;SDS011;231;48.120;11.576;2023-06-26T08:44:15;7.20;;;6.80;;
489;SDS011;231;48.120;11.576;2023-06-26T08:46:42;8.27;;;7.87;;
489;SDS011;231;48.120;11.576;2023-06-26T08:49:11;7.60;;;7.20;;
489;SDS011;231;48.120;11.576;2023-06-26T08:51:45;7.10;;;6.70;;
489;SDS011;231;48.120;11.576;2023-06-26T08:54:17;7.40;;;7.00;;
489;SDS011;231;48.120;11.576;2023-06-26T08:56:48;6.80;;;6.40;;
489;SDS011;231;48.120;11.576;2023-06-26T08:59:17;7.60;;;7.20;;
489;SDS011;231;48.120;11.576;2023-06-26T09:01:44;6.77;;;6.37;;
489;SDS011;231;48.120;11.576;2023-06-26T09:04:12;7.20;;;6.80;;
489;SDS011;231;48.120;11.576;2023-06-26T09:06:39;7.40;;;7.00;;
489;SDS011;231;48.120;11.576;2023-06-26T09:09:06;7.57;;;7.17;;
489;SDS011;231;48.120;11.576;2023-06-26T09:11:33;7.77;;;7.37;;
489;SDS011;231;48.120;11.576;2023-06-26T09:14:00;6.43;;;6.03;;
489;SDS011;231;48.120;11.576;2023-06-26T09:16:31;6.03;;;5.73;;
489;SDS011;231;48.120;11.576;2023-06-26T09:18:58;7.03;;;6.63;;
489;SDS011;231;48.120;11.576;2023-06-26T09:21:24;7.30;;;6.90;;
489;SDS011;231;48.120;11.576;2023-06-26T09:23:52;6.10;;;5.80;;
489;SDS011;231;48.120;11.576;2023-06-26T09:26:19;6.33;;;5.97;;
489;SDS011;231;48.120;11.576;2023-06-26T09:28:47;6.83;;;6.43;;
489;SDS011;231;48.120;11.576;2023-06-26T09:31:15;6.70;;;6.30;;
489;SDS011;231;48.120;11.576;2023-06-26T09:33:44;6.63;;;6.23;;
489;SDS011;231;48.120;11.576;2023-06-26T09:36:18;7.10;;;6.70;;
489;SDS011;231;48.120;11.576;2023-06-26T09:38:46;8.20;;;6.40;;
489;SDS011;231;48.120;11.576;2023-06-26T09:41:15;6.93;;;6.53;;
489;SDS011;231;48.120;11.576;2023-06-26T09:43:46;8.10;;;7.70;;
489;SDS011;231;48.120;11.576;2023-06-26T09:59:38;5.67;;;5.37;;
489;SDS011;231;48.120;11.576;2023-06-26T10:02:06;6.57;;;6.17;;
489;SDS011;231;48.120;11.576;2023-06-26T10:04:34;5.70;;;5.40;;
489;SDS011;231;48.120;11.576;2023-06-26T10:07:01;6.07;;;5.77;;
489;SDS011;231;48.120;11.576;2023-06-26T10:09:30;6.43;;;6.03;;
489;SDS011;231;48.120;11.576;2023-06-26T10:11:59;5.30;;;5.00;;
489;SDS011;231;48.120;11.576;2023-06-26T10:14:31;5.77;;;5.47;;
489;SDS011;231;48.120;11.576;2023-06-26T10:17:03;5.10;;;4.80;;
489;SDS011;231;48.120;11.576;2023-06-26T10:19:32;6.00;;;5.70;;
489;SDS011;231;48.120;11.576;2023-06-26T10:22:00;4.90;;;4.60;;
489;SDS011;231;48.120;11.576;2023-06-26T10:24:29;6.70;;;6.30;;
489;SDS011;231;48.120;11.576;2023-06-26T10:26:59;6.23;;;5.90;;
489;SDS011;231;48.120;11.576;2023-06-26T10:29:30;4.33;;;4.03;;
489;SDS011;231;48.120;11.576;2023-06-26T10:31:58;5.13;;;4.83;;
489;SDS011;231;48.120;11.576;2023-06-26T10:34:29;5.57;;;5.07;;
489;SDS011;231;48.120;11.576;2023-06-26T10:37:00;5.60;;;5.30;;
489;SDS011;231;48.120;11.576;2023-06-26T10:39:27;5.07;;;4.77;;
489;SDS011;231;48.120;11.576;2023-06-26T10:42:08;6.80;;;5.57;;
489;SDS011;231;48.120;11.576;2023-06-26T10:44:40;5.40;;;5.10;;
489;SDS011;231;48.120;11.576;2023-06-26T10:47:08;5.53;;;5.23;;
489;SDS011;231;48.120;11.576;2023-06-26T10:49:36;5.60;;;5.30;;
489;SDS011;231;48.120;11.576;2023-06-26T10:52:04;6.60;;;6.20;;
489;SDS011;231;48.120;11.576;2023-06-26T10:54:32;4.80;;;4.50;;
489;SDS011;231;48.120;11.576;2023-06-26T10:56:59;6.27;;;5.93;;
489;SDS011;231;48.120;11.576;2023-06-26T10:59:27;5.83;;;5.37;;
489;SDS011;231;48.120;11.576;2023-06-26T11:01:57;6.40;;;6.00;;
489;SDS011;231;48.120;11.576;2023-06-26T11:04:38;4.80;;;4.50;;
489;SDS011;231;48.120;11.576;2023-06-26T11:07:15;6.63;;;6.23;;
489;SDS011;231;48.120;11.576;2023-06-26T11:12:36;5.77;;;5.47;;
489;SDS011;231;48.120;11.576;2023-06-26T11:15:06;5.30;;;5.00;;
489;SDS011;231;48.120;11.576;2023-06-26T11:17:34;6.00;;;5.70;;
489;SDS011;231;48.120;11.576;2023-06-26T11:20:03;5.47;;;5.17;;
489;SDS011;231;48.120;11.576;2023-06-26T11:22:33;6.73;;;6.33;;
489;SDS011;231;48.120;11.576;2023-06-26T11:25:01;6.87;;;6.47;;
489;SDS011;231;48.120;11.576;2023-06-26T11:27:32;6.07;;;5.77;;
489;SDS011;231;48.120;11.576;2023-06-26T11:30:04;6.00;;;5.70;;
489;SDS011;231;48.120;11.576;2023-06-26T11:32:32;6.23;;;5.90;;
489;SDS011;231;48.120;11.576;2023-06-26T11:34:59;5.87;;;5.57;;
489;SDS011;231;48.120;11.576;2023-06-26T11:37:27;6.40;;;5.17;;
489;SDS011;231;48.120;11.576;2023-06-26T11:39:54;7.03;;;6.63;;
489;SDS011;231;48.120;11.576;2023-06-26T11:42:21;6.50;;;6.10;;
489;SDS011;231;48.120;11.576;2023-06-26T11:44:49;5.30;;;5.00;;
489;SDS011;231;48.120;11.576;2023-06-26T11:47:16;6.90;;;6.50;;
489;SDS011;231;48.120;11.576;2023-06-26T11:49:45;6.40;;;6.00;;
489;SDS011;231;48.120;11.576;2023-06-26T11:52:12;6.50;;;6.10;;
489;SDS011;231;48.120;11.576;2023-06-26T11:54:42;6.03;;;5.73;;
489;SDS011;231;48.120;11.576;2023-06-26T11:57:12;5.93;;;5.63;;
489;SDS011;231;48.120;11.576;2023-06-26T11:59:40;6.70;;;6.30;;
489;SDS011;231;48.120;11.576;2023-06-26T12:02:07;7.23;;;6.83;;
489;SDS011;231;48.120;11.576;2023-06-26T12:04:35;6.23;;;5.90;;
489;SDS011;231;48.120;11.576;2023-06-26T12:07:04;6.90;;;6.50;;
489;SDS011;231;48.120;11.576;2023-06-26T12:09:34;6.87;;;6.47;;
489;SDS011;231;48.120;11.576;2023-06-26T12:12:05;7.63;;;7.23;;
489;SDS011;231;48.120;11.576;2023-06-26T12:14:35;6.70;;;6.30;;
489;SDS011;231;48.120;11.576;2023-06-26T12:17:04;6.90;;;6.50;;
489;SDS011;231;48.120;11.576;2023-06-26T12:19:33;6.77;;;6.37;;
489;SDS011;231;48.120;11.576;2023-06-26T12:22:05;6.13;;;5.83;;
489;SDS011;231;48.120;11.576;2023-06-26T12:24:33;6.43;;;6.03;;
489;SDS011;231;48.120;11.576;2023-06-26T12:27:02;7.07;;;6.67;;
489;SDS011;231;48.120;11.576;2023-06-26T12:29:31;7.23;;;6.83;;
489;SDS011;231;48.120;11.576;2023-06-26T12:31:59;6.13;;;5.83;;
489;SDS011;231;48.120;11.576;2023-06-26T12:34:27;7.00;;;6.60;;
489;SDS011;231;48.120;11.576;2023-06-26T12:36:59;6.77;;;6.37;;
489;SDS011;231;48.120;11.576;2023-06-26T12:39:28;6.50;;;6.07;;
489;SDS011;231;48.120;11.576;2023-06-26T12:42:00;6.40;;;6.03;;
489;SDS011;231;48.120;11.576;2023-06-26T12:44:28;7.43;;;7.03;;
489;SDS011;231;48.120;11.576;2023-06-26T12:46:58;6.83;;;6.43;;
489;SDS011;231;48.120;11.576;2023-06-26T12:49:29;7.70;;;6.73;;
489;SDS011;231;48.120;11.576;2023-06-26T12:51:57;8.53;;;6.20;;
489;SDS011;231;48.120;11.576;2023-06-26T12:54:24;7.07;;;6.67;;
489;SDS011;231;48.120;11.576;2023-06-26T12:56:51;6.70;;;6.30;;
489;SDS011;231;48.120;11.576;2023-06-26T12:59:18;12.67;;;7.57;;
489;SDS011;231;48.120;11.576;2023-06-26T13:01:45;7.23;;;6.83;;
489;SDS011;231;48.120;11.576;2023-06-26T13:04:13;7.17;;;6.77;;
489;SDS011;231;48.120;11.576;2023-06-26T13:06:40;7.80;;;7.40;;
489;SDS011;231;48.120;11.576;2023-06-26T13:09:07;6.90;;;6.50;;
489;SDS011;231;48.120;11.576;2023-06-26T13:11:36;7.57;;;7.17;;
489;SDS011;231;48.120;11.576;2023-06-26T13:14:03;7.43;;;7.03;;
489;SDS011;231;48.120;11.576;2023-06-26T13:16:30;7.73;;;7.07;;
489;SDS011;231;48.120;11.576;2023-06-26T13:18:57;8.07;;;7.67;;
489;SDS011;231;48.120;11.576;2023-06-26T13:21:26;7.33;;;6.93;;
489;SDS011;231;48.120;11.576;2023-06-26T13:23:54;9.37;;;8.87;;
489;SDS011;231;48.120;11.576;2023-06-26T13:26:21;8.03;;;7.63;;
489;SDS011;231;48.120;11.576;2023-06-26T13:28:48;7.23;;;6.83;;
489;SDS011;231;48.120;11.576;2023-06-26T13:31:15;8.53;;;8.03;;
489;SDS011;231;48.120;11.576;2023-06-26T13:33:42;7.00;;;6.60;;
489;SDS011;231;48.120;11.576;2023-06-26T13:36:11;8.80;;;8.30;;
489;SDS011;231;48.120;11.576;2023-06-26T13:38:39;8.00;;;7.60;;
489;SDS011;231;48.120;11.576;2023-06-26T13:41:06;8.77;;;8.27;;
489;SDS011;231;48.120;11.576;2023-06-26T13:43:33;7.70;;;7.30;;
489;SDS011;231;48.120;11.576;2023-06-26T13:46:00;8.33;;;7.90;;
489;SDS011;231;48.120;11.576;2023-06-26T13:48:28;8.77;;;8.27;;
489;SDS011;231;48.120;11.576;2023-06-26T13:50:55;6.87;;;6.47;;
489;SDS011;231;48.120;11.576;2023-06-26T13:53:23;8.70;;;8.20;;
489;SDS011;231;48.120;11.576;2023-06-26T13:55:52;7.77;;;7.37;;
489;SDS011;231;48.120;11.576;2023-06-26T13:58:19;7.87;;;7.47;;
489;SDS011;231;48.120;11.576;2023-06-26T14:00:51;7.97;;;7.53;;
489;SDS011;231;48.120;11.576;2023-06-26T14:03:18;8.47;;;8.00;;
489;SDS011;231;48.120;11.576;2023-06-26T14:05:45;8.30;;;7.90;;
489;SDS011;231;48.120;11.576;2023-06-26T14:08:12;7.50;;;7.10;;
489;SDS011;231;48.120;11.576;2023-06-26T14:10:40;8.73;;;8.23;;
489;SDS011;231;48.120;11.576;2023-06-26T14:13:09;8.67;;;8.17;;
489;SDS011;231;48.120;11.576;2023-06-26T14:15:40;9.20;;;8.70;;
489;SDS011;231;48.120;11.576;2023-06-26T14:18:07;8.83;;;8.33;;
489;SDS011;231;48.120;11.576;2023-06-26T14:20:34;8.87;;;8.37;;
489;SDS011;231;48.120;11.576;2023-06-26T14:23:01;7.67;;;7.27;;
489;SDS011;231;48.120;11.576;2023-06-26T14:25:28;8.27;;;7.87;;
489;SDS011;231;48.120;11.576;2023-06-26T14:27:55;8.80;;;8.30;;
489;SDS011;231;48.120;11.576;2023-06-26T14:30:24;8.20;;;7.80;;
489;SDS011;231;48.120;11.576;2023-06-26T14:32:51;7.40;;;7.00;;
489;SDS011;231;48.120;11.576;2023-06-26T14:35:18;8.00;;;7.60;;
489;SDS011;231;48.120;11.576;2023-06-26T14:37:45;8.10;;;7.70;;
489;SDS011;231;48.120;11.576;2023-06-26T14:40:12;7.57;;;7.17;;
489;SDS011;231;48.120;11.576;2023-06-26T14:42:39;8.77;;;8.27;;
489;SDS011;231;48.120;11.576;2023-06-26T14:45:08;7.93;;;7.53;;
489;SDS011;231;48.120;11.576;2023-06-26T14:47:37;8.57;;;8.07;;
489;SDS011;231;48.120;11.576;2023-06-26T14:50:05;8.17;;;7.77;;
489;SDS011;231;48.120;11.576;2023-06-26T14:52:33;7.93;;;7.53;;
489;SDS011;231;48.120;11.576;2023-06-26T14:54:59;7.80;;;7.40;;
489;SDS011;231;48.120;11.576;2023-06-26T14:57:26;7.63;;;7.23;;
489;SDS011;231;48.120;11.576;2023-06-26T14:59:53;7.37;;;6.97;;
489;SDS011;231;48.120;11.576;2023-06-26T15:02:20;8.20;;;7.80;;
489;SDS011;231;48.120;11.576;2023-06-26T15:04:49;7.47;;;7.07;;
489;SDS011;231;48.120;11.576;2023-06-26T15:07:15;7.60;;;7.20;;
489;SDS011;231;48.120;11.576;2023-06-26T15:09:42;8.13;;;7.73;;
489;SDS011;231;48.120;11.576;2023-06-26T15:12:09;8.70;;;8.20;;
489;SDS011;231;48.120;11.576;2023-06-26T15:14:36;7.80;;;7.40;;
489;SDS011;231;48.120;11.576;2023-06-26T15:17:03;7.37;;;6.97;;
489;SDS011;231;48.120;11.576;2023-06-26T15:19:30;8.70;;;8.20;;
489;SDS011;231;48.120;11.576;2023-06-26T15:21:59;8.43;;;7.97;;
489;SDS011;231;48.120;11.576;2023-06-26T15:24:26;7.00;;;6.60;;
489;SDS011;231;48.120;11.576;2023-06-26T15:26:52;13.20;;;7.83;;
489;SDS011;231;48.120;11.576;2023-06-26T15:29:19;8.60;;;8.10;;
489;SDS011;231;48.120;11.576;2023-06-26T15:31:46;8.40;;;7.67;;
489;SDS011;231;48.120;11.576;2023-06-26T15:34:13;8.33;;;7.90;;
489;SDS011;231;48.120;11.576;2023-06-26T15:36:40;9.40;;;8.90;;
489;SDS011;231;48.120;11.576;2023-06-26T15:39:09;9.10;;;8.60;;
489;SDS011;231;48.120;11.576;2023-06-26T15:41:36;8.57;;;8.10;;
489;SDS011;231;48.120;11.576;2023-06-26T15:44:03;8.03;;;7.63;;
489;SDS011;231;48.120;11.576;2023-06-26T15:46:31;7.03;;;6.63;;
489;SDS011;231;48.120;11.576;2023-06-26T15:48:58;8.70;;;8.20;;
489;SDS011;231;48.120;11.576;2023-06-26T15:51:25;8.80;;;8.30;;
489;SDS011;231;48.120;11.576;2023-06-26T15:53:51;9.40;;;8.50;;
489;SDS011;231;48.120;11.576;2023-06-26T15:56:20;8.13;;;7.73;;
489;SDS011;231;48.120;11.576;2023-06-26T15:58:47;9.07;;;8.57;;
489;SDS011;231;48.120;11.576;2023-06-26T16:01:14;8.97;;;8.47;;
489;SDS011;231;48.120;11.576;2023-06-26T16:03:41;8.80;;;7.57;;
489;SDS011;231;48.120;11.576;2023-06-26T16:06:08;8.97;;;8.47;;
489;SDS011;231;48.120;11.576;2023-06-26T16:08:35;8.80;;;8.30;;
489;SDS011;231;48.120;11.576;2023-06-26T16:11:02;8.67;;;8.17;;
489;SDS011;231;48.120;11.576;2023-06-26T16:13:31;9.20;;;8.70;;
489;SDS011;231;48.120;11.576;2023-06-26T16:15:58;10.30;;;9.80;;
489;SDS011;231;48.120;11.576;2023-06-26T16:18:26;9.00;;;8.50;;
489;SDS011;231;48.120;11.576;2023-06-26T16:20:53;8.93;;;8.43;;
489;SDS011;231;48.120;11.576;2023-06-26T16:23:20;9.73;;;9.23;;
489;SDS011;231;48.120;11.576;2023-06-26T16:25:47;9.13;;;8.63;;
489;SDS011;231;48.120;11.576;2023-06-26T16:28:14;9.20;;;8.60;;
489;SDS011;231;48.120;11.576;2023-06-26T16:30:42;9.90;;;9.40;;
489;SDS011;231;48.120;11.576;2023-06-26T16:33:09;9.27;;;8.77;;
489;SDS011;231;48.120;11.576;2023-06-26T16:35:36;9.03;;;8.53;;
489;SDS011;231;48.120;11.576;2023-06-26T16:38:04;9.37;;;8.87;;
489;SDS011;231;48.120;11.576;2023-06-26T16:40:32;9.40;;;8.90;;
489;SDS011;231;48.120;11.576;2023-06-26T16:42:59;9.87;;;9.37;;
489;SDS011;231;48.120;11.576;2023-06-26T16:45:26;9.40;;;8.90;;
489;SDS011;231;48.120;11.576;2023-06-26T16:47:54;8.70;;;8.17;;
489;SDS011;231;48.120;11.576;2023-06-26T16:50:21;11.80;;;9.90;;
489;SDS011;231;48.120;11.576;2023-06-26T16:52:48;9.50;;;8.67;;
489;SDS011;231;48.120;11.576;2023-06-26T16:55:15;9.37;;;8.87;;
489;SDS011;231;48.120;11.576;2023-06-26T16:57:42;9.10;;;8.60;;
489;SDS011;231;48.120;11.576;2023-06-26T17:00:09;9.93;;;9.43;;
489;SDS011;231;48.120;11.576;2023-06-26T17:02:37;8.37;;;7.93;;
489;SDS011;231;48.120;11.576;2023-06-26T17:05:05;8.70;;;8.20;;
489;SDS011;231;48.120;11.576;2023-06-26T17:07:33;10.53;;;9.97;;
489;SDS011;231;48.120;11.576;2023-06-26T17:10:01;8.80;;;8.30;;
489;SDS011;231;48.120;11.576;2023-06-26T17:12:28;10.53;;;9.97;;
489;SDS011;231;48.120;11.576;2023-06-26T17:14:55;9.80;;;9.30;;
489;SDS011;231;48.120;11.576;2023-06-26T17:17:22;10.90;;;10.30;;
489;SDS011;231;48.120;11.576;2023-06-26T17:19:49;9.67;;;9.17;;
489;SDS011;231;48.120;11.576;2023-06-26T17:22:18;11.73;;;8.17;;
489;SDS011;231;48.120;11.576;2023-06-26T17:24:45;8.63;;;8.13;;
489;SDS011;231;48.120;11.576;2023-06-26T17:27:12;9.23;;;8.73;;
489;SDS011;231;48.120;11.576;2023-06-26T17:29:45;9.80;;;9.30;;
489;SDS011;231;48.120;11.576;2023-06-26T17:32:12;9.30;;;8.80;;
489;SDS011;231;48.120;11.576;2023-06-26T17:34:39;9.50;;;9.00;;
489;SDS011;231;48.120;11.576;2023-06-26T17:37:06;9.73;;;9.23;;
489;SDS011;231;48.120;11.576;2023-06-26T17:39:34;9.83;;;9.33;;
489;SDS011;231;48.120;11.576;2023-06-26T17:42:02;12.10;;;9.83;;
489;SDS011;231;48.120;11.576;2023-06-26T17:44:29;9.73;;;9.23;;
489;SDS011;231;48.120;11.576;2023-06-26T17:46:56;10.13;;;9.63;;
489;SDS011;231;48.120;11.576;2023-06-26T17:49:22;10.90;;;10.30;;
489;SDS011;231;48.120;11.576;2023-06-26T17:51:50;10.00;;;9.50;;
489;SDS011;231;48.120;11.576;2023-06-26T17:54:17;9.77;;;9.27;;
489;SDS011;231;48.120;11.576;2023-06-26T17:56:45;9.37;;;8.87;;
489;SDS011;231;48.120;11.576;2023-06-26T17:59:12;10.70;;;10.10;;
489;SDS011;231;48.120;11.576;2023-06-26T18:01:40;9.97;;;9.10;;
489;SDS011;231;48.120;11.576;2023-06-26T18:04:07;10.73;;;9.80;;
489;SDS011;231;48.120;11.576;2023-06-26T18:06:34;10.57;;;10.00;;
489;SDS011;231;48.120;11.576;2023-06-26T18:09:02;10.43;;;9.90;;
489;SDS011;231;48.120;11.576;2023-06-26T18:11:30;10.87;;;10.27;;
489;SDS011;231;48.120;11.576;2023-06-26T18:13:58;10.43;;;9.90;;
489;SDS011;231;48.120;11.576;2023-06-26T18:16:25;10.00;;;9.50;;
489;SDS011;231;48.120;11.576;2023-06-26T18:18:53;11.27;;;10.70;;
489;SDS011;231;48.120;11.576;2023-06-26T18:21:19;28.93;;;11.53;;
489;SDS011;231;48.120;11.576;2023-06-26T18:23:46;9.67;;;9.17;;
489;SDS011;231;48.120;11.576;2023-06-26T18:26:15;11.47;;;10.87;;
489;SDS011;231;48.120;11.576;2023-06-26T18:28:42;11.23;;;10.63;;
489;SDS011;231;48.120;11.576;2023-06-26T18:31:10;11.47;;;10.87;;
489;SDS011;231;48.120;11.576;2023-06-26T18:33:37;10.37;;;9.87;;
489;SDS011;231;48.120;11.576;2023-06-26T18:36:04;10.97;;;10.37;;
489;SDS011;231;48.120;11.576;2023-06-26T18:38:33;10.47;;;9.93;;
489;SDS011;231;48.120;11.576;2023-06-26T18:41:00;10.43;;;9.90;;
489;SDS011;231;48.120;11.576;2023-06-26T18:43:27;10.67;;;10.10;;
489;SDS011;231;48.120;11.576;2023-06-26T18:45:54;11.00;;;10.40;;
489;SDS011;231;48.120;11.576;2023-06-26T18:48:22;9.83;;;9.33;;
489;SDS011;231;48.120;11.576;2023-06-26T18:50:49;9.27;;;8.77;;
489;SDS011;231;48.120;11.576;2023-06-26T18:53:16;9.40;;;8.90;;
489;SDS011;231;48.120;11.576;2023-06-26T18:55:43;10.97;;;10.37;;
489;SDS011;231;48.120;11.576;2023-06-26T18:58:10;9.67;;;9.17;;
489;SDS011;231;48.120;11.576;2023-06-26T19:00:37;10.00;;;9.50;;
489;SDS011;231;48.120;11.576;2023-06-26T19:03:03;11.17;;;10.57;;
489;SDS011;231;48.120;11.576;2023-06-26T19:05:32;10.37;;;9.83;;
489;SDS011;231;48.120;11.576;2023-06-26T19:07:59;9.57;;;9.07;;
489;SDS011;231;48.120;11.576;2023-06-26T19:10:25;9.50;;;9.00;;
489;SDS011;231;48.120;11.576;2023-06-26T19:12:53;10.10;;;9.30;;
489;SDS011;231;48.120;11.576;2023-06-26T19:15:21;9.97;;;9.47;;
489;SDS011;231;48.120;11.576;2023-06-26T19:17:48;9.60;;;9.10;;
489;SDS011;231;48.120;11.576;2023-06-26T19:20:15;12.33;;;10.00;;
489;SDS011;231;48.120;11.576;2023-06-26T19:22:45;10.60;;;10.00;;
489;SDS011;231;48.120;11.576;2023-06-26T19:25:13;9.90;;;9.40;;
489;SDS011;231;48.120;11.576;2023-06-26T19:27:40;9.80;;;9.30;;
489;SDS011;231;48.120;11.576;2023-06-26T19:30:07;9.90;;;9.40;;
489;SDS011;231;48.120;11.576;2023-06-26T19:32:34;10.70;;;10.10;;
489;SDS011;231;48.120;11.576;2023-06-26T19:35:01;11.10;;;10.00;;
489;SDS011;231;48.120;11.576;2023-06-26T19:37:28;10.63;;;10.03;;
489;SDS011;231;48.120;11.576;2023-06-26T21:16:36;10.40;;;7.93;;
489;SDS011;231;48.120;11.576;2023-06-26T21:19:03;9.07;;;7.70;;
489;SDS011;231;48.120;11.576;2023-06-26T21:21:30;7.23;;;6.83;;
489;SDS011;231;48.120;11.576;2023-06-26T21:23:57;8.60;;;8.10;;
489;SDS011;231;48.120;11.576;2023-06-26T21:26:37;8.47;;;8.00;;
489;SDS011;231;48.120;11.576;2023-06-26T21:29:19;8.70;;;8.23;;
489;SDS011;231;48.120;11.576;2023-06-26T21:31:52;9.07;;;8.57;;
489;SDS011;231;48.120;11.576;2023-06-26T21:34:22;8.00;;;7.60;;
489;SDS011;231;48.120;11.576;2023-06-26T21:36:53;7.70;;;7.30;;
489;SDS011;231;48.120;11.576;2023-06-26T21:43:12;13.63;;;8.30;;
489;SDS011;231;48.120;11.576;2023-06-26T21:45:59;8.73;;;7.50;;
489;SDS011;231;48.120;11.576;2023-06-26T21:48:46;8.07;;;7.33;;
489;SDS011;231;48.120;11.576;2023-06-26T21:51:36;7.83;;;7.40;;
489;SDS011;231;48.120;11.576;2023-06-26T21:54:05;8.57;;;7.07;;
489;SDS011;231;48.120;11.576;2023-06-26T21:56:36;8.43;;;6.47;;
489;SDS011;231;48.120;11.576;2023-06-26T21:59:04;7.17;;;6.77;;
489;SDS011;231;48.120;11.576;2023-06-26T22:01:34;7.40;;;7.00;;
489;SDS011;231;48.120;11.576;2023-06-26T22:04:05;7.97;;;6.70;;
489;SDS011;231;48.120;11.576;2023-06-26T22:06:34;6.53;;;6.13;;
489;SDS011;231;48.120;11.576;2023-06-26T22:09:03;7.70;;;7.30;;
489;SDS011;231;48.120;11.576;2023-06-26T22:11:33;7.77;;;7.37;;
489;SDS011;231;48.120;11.576;2023-06-26T22:14:00;7.40;;;6.37;;
489;SDS011;231;48.120;11.576;2023-06-26T22:16:27;6.40;;;6.00;;
489;SDS011;231;48.120;11.576;2023-06-26T22:18:56;8.10;;;7.07;;
489;SDS011;231;48.120;11.576;2023-06-26T22:21:25;6.77;;;6.37;;
489;SDS011;231;48.120;11.576;2023-06-26T22:23:56;7.53;;;7.13;;
489;SDS011;231;48.120;11.576;2023-06-26T22:26:24;5.83;;;5.53;;
489;SDS011;231;48.120;11.576;2023-06-26T22:28:52;6.00;;;5.70;;
489;SDS011;231;48.120;11.576;2023-06-26T22:31:19;7.73;;;7.33;;
489;SDS011;231;48.120;11.576;2023-06-26T22:33:48;6.33;;;5.07;;
489;SDS011;231;48.120;11.576;2023-06-26T22:36:17;5.10;;;4.80;;
489;SDS011;231;48.120;11.576;2023-06-26T22:38:46;5.37;;;4.80;;
489;SDS011;231;48.120;11.576;2023-06-26T22:41:13;7.90;;;5.10;;
489;SDS011;231;48.120;11.576;2023-06-26T22:43:40;4.77;;;4.47;;
489;SDS011;231;48.120;11.576;2023-06-26T22:46:06;8.00;;;5.13;;
489;SDS011;231;48.120;11.576;2023-06-26T22:48:33;6.10;;;5.80;;
489;SDS011;231;48.120;11.576;2023-06-26T22:51:03;3.90;;;3.47;;
489;SDS011;231;48.120;11.576;2023-06-26T22:53:30;4.97;;;4.37;;
489;SDS011;231;48.120;11.576;2023-06-26T22:55:58;4.63;;;4.33;;
489;SDS011;231;48.120;11.576;2023-06-26T22:58:25;7.00;;;4.40;;